Home   Weather   Sweden   Södertälje   Past weeks
Flag for Sweden

Past Weather in Södertälje, Sweden — Yesterday and Last 2 Weeks

Currently: 46 °F. Cool. (Weather station: Stockholm Bromma Airport, Sweden). See more current weather

Past Weather in Södertälje — Graph

°F

Södertälje Temperature Yesterday

Maximum temperature yesterday: 64 °F (at 1:50 pm)
Minimum temperature yesterday: 45 °F (at 6:20 am)
Average temperature yesterday: 59 °F

High & Low Weather Summary for the Past Weeks

 TemperatureHumidityPressure
High73 °F (May 11, 12:50 pm)100% (May 5, 7:50 pm)29.89 "Hg (May 5, 7:50 pm)
Low30 °F (May 8, 4:20 am)29% (May 13, 5:20 pm)29.27 "Hg (May 6, 2:50 am)
Average50 °F72%29.67 "Hg
* Reported May 4 6:20 am — May 19 3:20 am, Södertälje. Weather by CustomWeather, © 2021

Note: Actual official high and low records may vary slightly from our data, if they occured in-between our weather recording intervals... More about our weather records

Södertälje Weather History for the Previous 24 Hours

Scroll right to see more
 ConditionsComfort  
Time TempWeatherWind HumidityBarometerVisibility
3:20 am
Wed, May 19
48 °FCool.3 mph82%29.71 "HgN/A
2:50 am50 °FCool.3 mph76%29.71 "HgN/A
2:20 am50 °FPassing clouds.5 mph76%29.71 "HgN/A
1:50 am52 °FOvercast.6 mph72%29.71 "HgN/A
1:20 am52 °FOvercast.3 mph72%29.71 "HgN/A
12:50 am52 °FOvercast.3 mph72%29.71 "HgN/A
12:20 am52 °FPassing clouds.3 mph77%29.71 "HgN/A
11:50 pm
Tue, May 18
54 °FPassing clouds.2 mph67%29.71 "HgN/A
11:20 pm54 °FPassing clouds.3 mph67%29.71 "HgN/A
10:50 pm55 °FPassing clouds.3 mph63%29.71 "HgN/A
10:20 pm54 °FPassing clouds.2 mph67%29.71 "HgN/A
9:50 pm59 °FClear.3 mph51%29.71 "Hg10 mi
9:20 pm59 °FSunny.6 mph48%29.71 "Hg10 mi
8:50 pm59 °FSunny.7 mph51%29.71 "Hg10 mi
8:20 pm61 °FSunny.8 mph48%29.71 "Hg10 mi
7:50 pm63 °FSunny.9 mph49%29.71 "Hg10 mi
7:20 pm63 °FSunny.8 mph49%29.71 "Hg10 mi
6:50 pm63 °FPassing clouds.7 mph49%29.71 "HgN/A
6:20 pm63 °FSunny.9 mph49%29.71 "Hg10 mi
5:50 pm64 °FSunny.8 mph49%29.71 "Hg10 mi
5:20 pm64 °FPassing clouds.7 mph43%29.71 "HgN/A
4:50 pm64 °FPassing clouds.9 mph43%29.71 "HgN/A
4:20 pm64 °FPassing clouds.7 mph46%29.71 "HgN/A
3:50 pm64 °FPassing clouds.9 mph43%29.71 "HgN/A
3:20 pm64 °FScattered clouds.10 mph43%29.71 "HgN/A
2:50 pm64 °FScattered clouds.8 mph46%29.71 "HgN/A
2:20 pm64 °FScattered clouds.8 mph46%29.71 "HgN/A
1:50 pm64 °FPassing clouds.8 mph52%29.71 "HgN/A
1:20 pm63 °FPassing clouds.5 mph52%29.71 "HgN/A
12:50 pm63 °FPassing clouds.6 mph52%29.71 "HgN/A
12:20 pm61 °FPassing clouds.7 mph55%29.71 "HgN/A
11:50 am61 °FSunny.3 mph55%29.71 "Hg10 mi
11:20 am61 °FSunny.5 mph55%29.71 "Hg10 mi
10:50 am59 °FPassing clouds.5 mph63%29.71 "HgN/A
10:20 am59 °FPassing clouds.5 mph59%29.71 "HgN/A
9:50 am57 °FPassing clouds.3 mph67%29.71 "HgN/A
9:20 am55 °FSunny.3 mph72%29.71 "Hg10 mi
8:50 am54 °FPassing clouds.3 mph77%29.71 "HgN/A
8:20 am52 °FPassing clouds.2 mph82%29.71 "HgN/A
7:50 am48 °FScattered clouds.1 mph100%29.68 "Hg4 mi
7:20 am46 °FFog.6 mph100%29.71 "Hg2 mi
6:50 am46 °FFog.5 mph100%29.71 "Hg2 mi
6:20 am45 °FFog.5 mph100%29.68 "Hg1 mi
Weather by CustomWeather, © 2021

See weather overview